Time,TemperatureF,DewpointF,PressureIn,WindDirection,WindDirectionDegrees,WindSpeedMPH,WindSpeedGustMPH,Humidity,HourlyPrecipIn,Conditions,Clouds,dailyrainin,SoftwareType,DateUTC
2013-10-15 00:01:00,47.2,44.1,30.30,SSW,212,0.0,2.0,89,0.00,,,0.00,WUHU216DAVISVP2,2013-10-15 04:01:00,
2013-10-15 00:06:00,46.8,44.0,30.30,SSW,212,0.0,0.0,90,0.00,,,0.00,WUHU216DAVISVP2,2013-10-15 04:06:00,
2013-10-15 00:11:00,46.7,43.9,30.30,SSE,160,0.0,2.0,90,0.00,,,0.00,WUHU216DAVISVP2,2013-10-15 04:11:00,
2013-10-15 00:16:00,46.5,44.0,30.29,SSE,160,0.0,2.0,91,0.00,,,0.00,WUHU216DAVISVP2,2013-10-15 04:16:00,
2013-10-15 00:21:00,46.4,43.9,30.29,SSE,148,0.0,2.0,91,0.00,,,0.00,WUHU216DAVISVP2,2013-10-15 04:21:00,
2013-10-15 00:26:00,46.3,43.8,30.29,SE,125,0.0,2.0,91,0.00,,,0.00,WUHU216DAVISVP2,2013-10-15 04:26:00,
2013-10-15 00:31:00,46.3,43.8,30.29,SE,124,0.0,2.0,91,0.00,,,0.00,WUHU216DAVISVP2,2013-10-15 04:31:00,
2013-10-15 00:36:00,46.3,43.8,30.29,SSE,167,4.0,6.0,91,0.00,,,0.00,WUHU216DAVISVP2,2013-10-15 04:36:00,
2013-10-15 00:41:00,46.5,43.7,30.29,SE,135,0.0,6.0,90,0.00,,,0.00,WUHU216DAVISVP2,2013-10-15 04:41:00,
2013-10-15 00:46:00,46.7,43.6,30.28,ESE,102,0.0,6.0,89,0.00,,,0.00,WUHU216DAVISVP2,2013-10-15 04:46:00,
2013-10-15 00:51:00,47.0,43.9,30.29,NE,44,0.0,4.0,89,0.00,,,0.00,WUHU216DAVISVP2,2013-10-15 04:51:00,
2013-10-15 00:56:00,47.3,43.9,30.29,ESE,115,0.0,8.0,88,0.00,,,0.00,WUHU216DAVISVP2,2013-10-15 04:56:00,
2013-10-15 01:05:00,47.4,44.3,30.28,North,0,0.0,8.0,89,0.00,,,0.00,WUHU216DAVISVP2,2013-10-15 05:05:00,
2013-10-15 01:10:00,46.7,43.6,30.28,ESE,115,0.0,2.0,89,0.00,,,0.00,WUHU216DAVISVP2,2013-10-15 05:10:00,
2013-10-15 01:15:00,46.2,43.4,30.28,ESE,115,0.0,2.0,90,0.00,,,0.00,WUHU216DAVISVP2,2013-10-15 05:15:00,
2013-10-15 01:20:00,45.8,43.3,30.29,ESE,115,0.0,2.0,91,0.00,,,0.00,WUHU216DAVISVP2,2013-10-15 05:20:00,
2013-10-15 01:25:00,45.5,43.0,30.28,ESE,115,0.0,0.0,91,0.00,,,0.00,WUHU216DAVISVP2,2013-10-15 05:25:00,
2013-10-15 01:30:00,45.2,42.7,30.28,ESE,115,0.0,2.0,91,0.00,,,0.00,WUHU216DAVISVP2,2013-10-15 05:30:00,
2013-10-15 01:35:00,44.9,42.4,30.28,ESE,115,0.0,2.0,91,0.00,,,0.00,WUHU216DAVISVP2,2013-10-15 05:35:00,
2013-10-15 01:40:00,44.6,42.4,30.28,ESE,115,0.0,0.0,92,0.00,,,0.00,WUHU216DAVISVP2,2013-10-15 05:40:00,
2013-10-15 01:45:00,44.4,42.2,30.27,ESE,115,0.0,0.0,92,0.00,,,0.00,WUHU216DAVISVP2,2013-10-15 05:45:00,
2013-10-15 01:50:00,44.2,42.3,30.28,ESE,115,0.0,0.0,93,0.00,,,0.00,WUHU216DAVISVP2,2013-10-15 05:50:00,
2013-10-15 01:55:00,44.0,42.1,30.27,ESE,115,0.0,0.0,93,0.00,,,0.00,WUHU216DAVISVP2,2013-10-15 05:55:00,
2013-10-15 02:00:00,43.9,42.0,30.27,ESE,115,0.0,0.0,93,0.00,,,0.00,WUHU216DAVISVP2,2013-10-15 06:00:00,
2013-10-15 02:05:00,43.7,41.8,30.27,ESE,115,0.0,0.0,93,0.00,,,0.00,WUHU216DAVISVP2,2013-10-15 06:05:00,
2013-10-15 02:10:00,43.6,41.7,30.27,ESE,115,0.0,0.0,93,0.00,,,0.00,WUHU216DAVISVP2,2013-10-15 06:10:00,
2013-10-15 02:15:00,43.5,41.6,30.27,ESE,115,0.0,0.0,93,0.00,,,0.00,WUHU216DAVISVP2,2013-10-15 06:15:00,
2013-10-15 02:20:00,43.4,41.7,30.26,ESE,115,0.0,0.0,94,0.00,,,0.00,WUHU216DAVISVP2,2013-10-15 06:20:00,
2013-10-15 02:25:00,43.3,41.6,30.26,ESE,115,0.0,0.0,94,0.00,,,0.00,WUHU216DAVISVP2,2013-10-15 06:25:00,
2013-10-15 02:30:00,43.2,41.5,30.26,ESE,115,0.0,0.0,94,0.00,,,0.00,WUHU216DAVISVP2,2013-10-15 06:30:00,
2013-10-15 02:35:00,43.2,41.5,30.25,ESE,115,0.0,0.0,94,0.00,,,0.00,WUHU216DAVISVP2,2013-10-15 06:35:00,
2013-10-15 02:40:00,43.1,41.4,30.25,ESE,115,0.0,0.0,94,0.00,,,0.00,WUHU216DAVISVP2,2013-10-15 06:40:00,
2013-10-15 02:45:00,43.1,41.4,30.25,ESE,115,0.0,0.0,94,0.00,,,0.00,WUHU216DAVISVP2,2013-10-15 06:45:00,
2013-10-15 02:50:00,43.3,41.9,30.25,ESE,115,2.0,2.0,95,0.00,,,0.00,WUHU216DAVISVP2,2013-10-15 06:50:00,
2013-10-15 02:55:00,43.4,42.0,30.25,ESE,115,0.0,2.0,95,0.00,,,0.00,WUHU216DAVISVP2,2013-10-15 06:55:00,
2013-10-15 03:00:00,43.4,42.0,30.25,ESE,115,0.0,2.0,95,0.00,,,0.00,WUHU216DAVISVP2,2013-10-15 07:00:00,
2013-10-15 03:05:00,43.3,41.9,30.25,ESE,115,0.0,2.0,95,0.00,,,0.00,WUHU216DAVISVP2,2013-10-15 07:05:00,
2013-10-15 03:10:00,43.3,41.9,30.25,ESE,115,0.0,2.0,95,0.00,,,0.00,WUHU216DAVISVP2,2013-10-15 07:10:00,
2013-10-15 03:15:00,43.2,41.8,30.24,ESE,115,0.0,0.0,95,0.00,,,0.00,WUHU216DAVISVP2,2013-10-15 07:15:00,
2013-10-15 03:20:00,43.0,41.6,30.24,ESE,115,0.0,0.0,95,0.00,,,0.00,WUHU216DAVISVP2,2013-10-15 07:20:00,
2013-10-15 03:25:00,42.9,41.5,30.24,ESE,115,0.0,0.0,95,0.00,,,0.00,WUHU216DAVISVP2,2013-10-15 07:25:00,
2013-10-15 03:30:00,42.8,41.4,30.24,ESE,115,0.0,0.0,95,0.00,,,0.00,WUHU216DAVISVP2,2013-10-15 07:30:00,
2013-10-15 03:35:00,42.7,41.3,30.23,ESE,115,0.0,0.0,95,0.00,,,0.00,WUHU216DAVISVP2,2013-10-15 07:35:00,
2013-10-15 03:40:00,42.7,41.3,30.23,ESE,115,0.0,0.0,95,0.00,,,0.00,WUHU216DAVISVP2,2013-10-15 07:40:00,
2013-10-15 03:45:00,42.7,41.3,30.23,ESE,115,0.0,0.0,95,0.00,,,0.00,WUHU216DAVISVP2,2013-10-15 07:45:00,
2013-10-15 03:50:00,42.9,41.5,30.23,ESE,115,0.0,0.0,95,0.00,,,0.00,WUHU216DAVISVP2,2013-10-15 07:50:00,
2013-10-15 03:55:00,42.8,41.4,30.23,ESE,115,0.0,0.0,95,0.00,,,0.00,WUHU216DAVISVP2,2013-10-15 07:55:00,
2013-10-15 04:00:00,42.9,41.5,30.23,ESE,115,0.0,0.0,95,0.00,,,0.00,WUHU216DAVISVP2,2013-10-15 08:00:00,
2013-10-15 04:05:00,43.1,42.0,30.23,SE,140,0.0,6.0,96,0.00,,,0.00,WUHU216DAVISVP2,2013-10-15 08:05:00,
2013-10-15 04:10:00,43.3,42.2,30.23,SE,142,0.0,6.0,96,0.00,,,0.00,WUHU216DAVISVP2,2013-10-15 08:10:00,
2013-10-15 04:15:00,44.0,42.9,30.22,SSW,192,0.0,4.0,96,0.00,,,0.00,WUHU216DAVISVP2,2013-10-15 08:15:00,
2013-10-15 04:20:00,44.7,43.9,30.22,South,169,2.0,4.0,97,0.00,,,0.00,WUHU216DAVISVP2,2013-10-15 08:20:00,
2013-10-15 04:25:00,44.6,43.8,30.22,SSW,199,0.0,4.0,97,0.00,,,0.00,WUHU216DAVISVP2,2013-10-15 08:25:00,
2013-10-15 04:30:00,44.1,43.0,30.22,SSW,199,0.0,4.0,96,0.00,,,0.00,WUHU216DAVISVP2,2013-10-15 08:30:00,
2013-10-15 04:35:00,43.8,42.4,30.22,SSW,199,0.0,0.0,95,0.00,,,0.00,WUHU216DAVISVP2,2013-10-15 08:35:00,
2013-10-15 04:40:00,43.7,42.3,30.22,SSW,199,0.0,0.0,95,0.00,,,0.00,WUHU216DAVISVP2,2013-10-15 08:40:00,
2013-10-15 04:45:00,43.6,42.2,30.22,SSW,199,0.0,2.0,95,0.00,,,0.00,WUHU216DAVISVP2,2013-10-15 08:45:00,
2013-10-15 04:50:00,43.4,42.0,30.22,SSW,199,0.0,2.0,95,0.00,,,0.00,WUHU216DAVISVP2,2013-10-15 08:50:00,
2013-10-15 04:55:00,43.5,42.4,30.22,SSW,199,0.0,2.0,96,0.00,,,0.00,WUHU216DAVISVP2,2013-10-15 08:55:00,
2013-10-15 05:00:00,43.9,42.8,30.22,SSE,168,0.0,4.0,96,0.00,,,0.00,WUHU216DAVISVP2,2013-10-15 09:00:00,
2013-10-15 05:05:00,43.9,42.8,30.22,SSE,168,0.0,4.0,96,0.00,,,0.00,WUHU216DAVISVP2,2013-10-15 09:05:00,
2013-10-15 05:10:00,43.8,42.7,30.22,SSE,168,0.0,2.0,96,0.00,,,0.00,WUHU216DAVISVP2,2013-10-15 09:10:00,
2013-10-15 05:15:00,44.1,43.0,30.22,SSE,168,2.0,4.0,96,0.00,,,0.00,WUHU216DAVISVP2,2013-10-15 09:15:00,
2013-10-15 05:20:00,44.2,43.1,30.22,SSE,168,0.0,4.0,96,0.00,,,0.00,WUHU216DAVISVP2,2013-10-15 09:20:00,
2013-10-15 05:25:00,44.0,42.9,30.22,SSE,168,0.0,2.0,96,0.00,,,0.00,WUHU216DAVISVP2,2013-10-15 09:25:00,
2013-10-15 05:30:00,44.6,43.8,30.22,ENE,76,2.0,4.0,97,0.00,,,0.00,WUHU216DAVISVP2,2013-10-15 09:30:00,
2013-10-15 05:35:00,45.6,44.8,30.22,SSE,163,0.0,4.0,97,0.00,,,0.00,WUHU216DAVISVP2,2013-10-15 09:35:00,
2013-10-15 05:40:00,46.4,45.6,30.23,SSW,196,0.0,6.0,97,0.00,,,0.00,WUHU216DAVISVP2,2013-10-15 09:40:00,
2013-10-15 05:45:00,46.6,45.8,30.23,South,177,0.0,8.0,97,0.00,,,0.00,WUHU216DAVISVP2,2013-10-15 09:45:00,
2013-10-15 05:50:00,46.8,46.0,30.23,West,273,0.0,8.0,97,0.00,,,0.00,WUHU216DAVISVP2,2013-10-15 09:50:00,
2013-10-15 05:55:00,47.0,46.2,30.23,South,176,0.0,12.0,97,0.00,,,0.00,WUHU216DAVISVP2,2013-10-15 09:55:00,
2013-10-15 06:00:00,47.1,46.3,30.23,SSW,213,6.0,12.0,97,0.00,,,0.00,WUHU216DAVISVP2,2013-10-15 10:00:00,
2013-10-15 06:05:00,47.6,46.8,30.22,South,185,2.0,8.0,97,0.00,,,0.00,WUHU216DAVISVP2,2013-10-15 10:05:00,
2013-10-15 06:10:00,48.0,47.4,30.22,SW,223,0.0,8.0,98,0.00,,,0.00,WUHU216DAVISVP2,2013-10-15 10:10:00,
2013-10-15 06:15:00,47.4,46.6,30.22,SW,236,0.0,6.0,97,0.00,,,0.00,WUHU216DAVISVP2,2013-10-15 10:15:00,
2013-10-15 06:20:00,46.6,45.8,30.22,SW,236,0.0,2.0,97,0.00,,,0.00,WUHU216DAVISVP2,2013-10-15 10:20:00,
2013-10-15 06:25:00,46.6,45.8,30.22,SW,236,0.0,0.0,97,0.00,,,0.00,WUHU216DAVISVP2,2013-10-15 10:25:00,
2013-10-15 06:30:00,46.5,45.7,30.22,SW,236,0.0,0.0,97,0.00,,,0.00,WUHU216DAVISVP2,2013-10-15 10:30:00,
2013-10-15 06:35:00,46.7,45.9,30.22,SSE,159,0.0,4.0,97,0.00,,,0.00,WUHU216DAVISVP2,2013-10-15 10:35:00,
2013-10-15 06:40:00,47.7,46.9,30.22,SE,144,0.0,4.0,97,0.00,,,0.00,WUHU216DAVISVP2,2013-10-15 10:40:00,
2013-10-15 06:45:00,48.2,47.6,30.22,SSW,209,0.0,4.0,98,0.00,,,0.00,WUHU216DAVISVP2,2013-10-15 10:45:00,
2013-10-15 06:50:00,47.8,47.0,30.21,SSW,209,0.0,4.0,97,0.00,,,0.00,WUHU216DAVISVP2,2013-10-15 10:50:00,
2013-10-15 06:55:00,47.3,46.5,30.21,SSW,209,0.0,0.0,97,0.00,,,0.00,WUHU216DAVISVP2,2013-10-15 10:55:00,
2013-10-15 07:00:00,46.8,45.7,30.21,SSW,209,0.0,0.0,96,0.00,,,0.00,WUHU216DAVISVP2,2013-10-15 11:00:00,
2013-10-15 07:05:00,46.3,45.2,30.21,SSW,209,0.0,0.0,96,0.00,,,0.00,WUHU216DAVISVP2,2013-10-15 11:05:00,
2013-10-15 07:10:00,46.0,44.9,30.21,SSW,209,0.0,2.0,96,0.00,,,0.00,WUHU216DAVISVP2,2013-10-15 11:10:00,
2013-10-15 07:15:00,45.7,44.6,30.21,SSW,209,0.0,2.0,96,0.00,,,0.00,WUHU216DAVISVP2,2013-10-15 11:15:00,
2013-10-15 07:20:00,45.5,44.4,30.21,SSW,209,0.0,0.0,96,0.00,,,0.00,WUHU216DAVISVP2,2013-10-15 11:20:00,
2013-10-15 07:25:00,45.3,44.2,30.21,SSW,209,0.0,0.0,96,0.00,,,0.00,WUHU216DAVISVP2,2013-10-15 11:25:00,
2013-10-15 07:30:00,45.0,43.9,30.21,SSW,209,0.0,0.0,96,0.00,,,0.00,WUHU216DAVISVP2,2013-10-15 11:30:00,
2013-10-15 07:35:00,45.0,43.9,30.21,SSW,209,0.0,0.0,96,0.00,,,0.00,WUHU216DAVISVP2,2013-10-15 11:35:00,
2013-10-15 07:40:00,45.5,44.7,30.21,SE,136,0.0,2.0,97,0.00,,,0.00,WUHU216DAVISVP2,2013-10-15 11:40:00,
2013-10-15 07:45:00,46.6,45.8,30.21,SSW,192,0.0,2.0,97,0.00,,,0.00,WUHU216DAVISVP2,2013-10-15 11:45:00,
2013-10-15 07:50:00,47.8,47.2,30.21,SSW,192,0.0,2.0,98,0.00,,,0.00,WUHU216DAVISVP2,2013-10-15 11:50:00,
2013-10-15 07:55:00,48.3,47.7,30.21,SSW,200,2.0,6.0,98,0.00,,,0.00,WUHU216DAVISVP2,2013-10-15 11:55:00,
2013-10-15 08:00:00,48.6,48.0,30.21,SSW,200,0.0,6.0,98,0.00,,,0.00,WUHU216DAVISVP2,2013-10-15 12:00:00,
2013-10-15 08:05:00,48.6,48.0,30.21,SSW,200,0.0,4.0,98,0.00,,,0.00,WUHU216DAVISVP2,2013-10-15 12:05:00,
2013-10-15 08:10:00,48.6,48.0,30.21,SSW,200,0.0,2.0,98,0.00,,,0.00,WUHU216DAVISVP2,2013-10-15 12:10:00,
2013-10-15 08:15:00,48.6,48.0,30.21,SSW,200,0.0,2.0,98,0.00,,,0.00,WUHU216DAVISVP2,2013-10-15 12:15:00,
2013-10-15 08:20:00,49.0,48.4,30.21,SSW,200,0.0,4.0,98,0.00,,,0.00,WUHU216DAVISVP2,2013-10-15 12:20:00,
2013-10-15 08:25:00,49.7,49.1,30.21,SSW,207,0.0,4.0,98,0.00,,,0.00,WUHU216DAVISVP2,2013-10-15 12:25:00,
2013-10-15 08:30:00,51.2,50.6,30.21,SSW,200,2.0,4.0,98,0.00,,,0.00,WUHU216DAVISVP2,2013-10-15 12:30:00,
2013-10-15 08:35:00,52.5,51.9,30.21,South,184,4.0,10.0,98,0.00,,,0.00,WUHU216DAVISVP2,2013-10-15 12:35:00,
2013-10-15 08:40:00,53.3,52.7,30.21,South,184,0.0,10.0,98,0.00,,,0.00,WUHU216DAVISVP2,2013-10-15 12:40:00,
2013-10-15 08:45:00,53.8,53.2,30.20,South,185,2.0,4.0,98,0.00,,,0.00,WUHU216DAVISVP2,2013-10-15 12:45:00,
2013-10-15 08:50:00,54.2,53.6,30.20,SE,144,2.0,6.0,98,0.00,,,0.00,WUHU216DAVISVP2,2013-10-15 12:50:00,
2013-10-15 08:55:00,54.6,54.0,30.20,SE,140,0.0,6.0,98,0.00,,,0.00,WUHU216DAVISVP2,2013-10-15 12:55:00,
2013-10-15 09:00:00,55.0,54.4,30.20,SE,140,0.0,2.0,98,0.00,,,0.00,WUHU216DAVISVP2,2013-10-15 13:00:00,
2013-10-15 09:05:00,55.3,54.7,30.20,SE,140,0.0,0.0,98,0.00,,,0.00,WUHU216DAVISVP2,2013-10-15 13:05:00,
2013-10-15 09:10:00,55.5,54.9,30.20,SE,140,0.0,2.0,98,0.00,,,0.00,WUHU216DAVISVP2,2013-10-15 13:10:00,
2013-10-15 09:15:00,55.7,55.1,30.20,SE,140,0.0,2.0,98,0.00,,,0.00,WUHU216DAVISVP2,2013-10-15 13:15:00,
2013-10-15 09:20:00,55.9,55.3,30.19,SSW,200,0.0,10.0,98,0.00,,,0.00,WUHU216DAVISVP2,2013-10-15 13:20:00,
2013-10-15 09:25:00,56.1,55.5,30.19,SSW,213,2.0,10.0,98,0.00,,,0.00,WUHU216DAVISVP2,2013-10-15 13:25:00,
2013-10-15 09:30:00,56.4,55.8,30.20,SSW,212,0.0,8.0,98,0.00,,,0.00,WUHU216DAVISVP2,2013-10-15 13:30:00,
2013-10-15 09:35:00,56.6,56.0,30.20,SE,124,0.0,14.0,98,0.00,,,0.00,WUHU216DAVISVP2,2013-10-15 13:35:00,
2013-10-15 09:40:00,56.9,56.3,30.20,SSE,165,4.0,14.0,98,0.00,,,0.00,WUHU216DAVISVP2,2013-10-15 13:40:00,
2013-10-15 09:45:00,57.3,56.7,30.20,SSW,197,6.0,10.0,98,0.00,,,0.00,WUHU216DAVISVP2,2013-10-15 13:45:00,
2013-10-15 09:50:00,57.7,57.1,30.20,SE,126,0.0,10.0,98,0.00,,,0.00,WUHU216DAVISVP2,2013-10-15 13:50:00,
2013-10-15 09:55:00,58.2,57.6,30.20,SW,215,0.0,12.0,98,0.00,,,0.00,WUHU216DAVISVP2,2013-10-15 13:55:00,
2013-10-15 10:00:00,58.7,56.9,30.20,SW,215,2.0,12.0,94,0.00,,,0.00,WUHU216DAVISVP2,2013-10-15 14:00:00,
2013-10-15 10:05:00,59.4,57.0,30.19,SSE,161,6.0,6.0,92,0.00,,,0.00,WUHU216DAVISVP2,2013-10-15 14:05:00,
2013-10-15 10:10:00,59.7,56.4,30.19,South,180,8.0,14.0,89,0.00,,,0.00,WUHU216DAVISVP2,2013-10-15 14:10:00,
2013-10-15 10:15:00,59.8,56.5,30.19,SSE,167,8.0,14.0,89,0.00,,,0.00,WUHU216DAVISVP2,2013-10-15 14:15:00,
2013-10-15 10:20:00,59.9,56.3,30.19,SSW,205,8.0,16.0,88,0.00,,,0.00,WUHU216DAVISVP2,2013-10-15 14:20:00,
2013-10-15 10:25:00,60.0,56.4,30.19,SSW,206,0.0,16.0,88,0.00,,,0.00,WUHU216DAVISVP2,2013-10-15 14:25:00,
2013-10-15 10:30:00,60.2,56.6,30.19,SSE,150,10.0,16.0,88,0.00,,,0.00,WUHU216DAVISVP2,2013-10-15 14:30:00,
2013-10-15 10:35:00,60.2,56.6,30.19,SSW,213,6.0,16.0,88,0.00,,,0.00,WUHU216DAVISVP2,2013-10-15 14:35:00,
2013-10-15 10:40:00,60.3,56.7,30.19,SW,234,4.0,12.0,88,0.00,,,0.00,WUHU216DAVISVP2,2013-10-15 14:40:00,
2013-10-15 10:45:00,60.4,56.8,30.19,WSW,244,0.0,12.0,88,0.00,,,0.00,WUHU216DAVISVP2,2013-10-15 14:45:00,
2013-10-15 10:50:00,60.5,56.9,30.19,SSE,150,4.0,10.0,88,0.00,,,0.00,WUHU216DAVISVP2,2013-10-15 14:50:00,
2013-10-15 10:55:00,60.4,56.5,30.19,SSE,150,10.0,12.0,87,0.00,,,0.00,WUHU216DAVISVP2,2013-10-15 14:55:00,
2013-10-15 11:00:00,60.3,56.4,30.18,SE,140,2.0,14.0,87,0.00,,,0.00,WUHU216DAVISVP2,2013-10-15 15:00:00,
2013-10-15 11:05:00,60.2,56.6,30.18,South,182,0.0,14.0,88,0.00,,,0.00,WUHU216DAVISVP2,2013-10-15 15:05:00,
2013-10-15 11:10:00,60.3,56.7,30.18,South,188,4.0,12.0,88,0.00,,,0.00,WUHU216DAVISVP2,2013-10-15 15:10:00,
2013-10-15 11:15:00,60.4,56.8,30.17,East,87,0.0,14.0,88,0.00,,,0.00,WUHU216DAVISVP2,2013-10-15 15:15:00,
2013-10-15 11:20:00,60.5,56.9,30.17,South,172,4.0,14.0,88,0.00,,,0.00,WUHU216DAVISVP2,2013-10-15 15:20:00,
2013-10-15 11:25:00,60.4,56.8,30.17,SSE,167,6.0,12.0,88,0.00,,,0.00,WUHU216DAVISVP2,2013-10-15 15:25:00,
2013-10-15 11:30:00,60.4,56.8,30.17,SSW,200,4.0,12.0,88,0.00,,,0.00,WUHU216DAVISVP2,2013-10-15 15:30:00,
2013-10-15 11:35:00,60.4,56.8,30.17,SSE,164,4.0,12.0,88,0.00,,,0.00,WUHU216DAVISVP2,2013-10-15 15:35:00,
2013-10-15 11:40:00,60.3,56.7,30.17,WSW,257,0.0,16.0,88,0.00,,,0.00,WUHU216DAVISVP2,2013-10-15 15:40:00,
2013-10-15 11:45:00,60.3,56.7,30.16,SSE,159,0.0,16.0,88,0.00,,,0.00,WUHU216DAVISVP2,2013-10-15 15:45:00,
2013-10-15 11:50:00,60.3,56.7,30.16,ESE,116,2.0,14.0,88,0.00,,,0.00,WUHU216DAVISVP2,2013-10-15 15:50:00,
2013-10-15 11:55:00,60.4,57.1,30.16,SW,216,0.0,14.0,89,0.00,,,0.00,WUHU216DAVISVP2,2013-10-15 15:55:00,
2013-10-15 12:00:00,60.5,56.6,30.16,South,184,8.0,12.0,87,0.00,,,0.00,WUHU216DAVISVP2,2013-10-15 16:00:00,
2013-10-15 12:05:00,60.5,56.6,30.16,SSW,200,2.0,14.0,87,0.00,,,0.00,WUHU216DAVISVP2,2013-10-15 16:05:00,
2013-10-15 12:10:00,60.5,56.6,30.16,SSW,197,4.0,14.0,87,0.00,,,0.00,WUHU216DAVISVP2,2013-10-15 16:10:00,
2013-10-15 12:15:00,60.5,56.6,30.15,South,176,6.0,14.0,87,0.00,,,0.00,WUHU216DAVISVP2,2013-10-15 16:15:00,
2013-10-15 12:20:00,60.4,56.5,30.15,SE,129,0.0,14.0,87,0.00,,,0.00,WUHU216DAVISVP2,2013-10-15 16:20:00,
2013-10-15 12:25:00,60.5,56.6,30.15,SSE,157,2.0,14.0,87,0.00,,,0.00,WUHU216DAVISVP2,2013-10-15 16:25:00,
2013-10-15 12:30:00,60.6,57.0,30.14,SSE,165,0.0,18.0,88,0.00,,,0.00,WUHU216DAVISVP2,2013-10-15 16:30:00,
2013-10-15 12:35:00,60.9,56.7,30.14,East,98,10.0,18.0,86,0.00,,,0.00,WUHU216DAVISVP2,2013-10-15 16:35:00,
2013-10-15 12:40:00,60.9,56.7,30.14,South,173,0.0,18.0,86,0.00,,,0.00,WUHU216DAVISVP2,2013-10-15 16:40:00,
2013-10-15 12:45:00,61.0,56.8,30.14,SW,229,6.0,16.0,86,0.00,,,0.00,WUHU216DAVISVP2,2013-10-15 16:45:00,
2013-10-15 12:50:00,61.0,56.8,30.14,SSW,193,10.0,16.0,86,0.00,,,0.00,WUHU216DAVISVP2,2013-10-15 16:50:00,
2013-10-15 12:55:00,60.9,56.7,30.13,SW,225,4.0,16.0,86,0.00,,,0.00,WUHU216DAVISVP2,2013-10-15 16:55:00,
2013-10-15 13:00:00,61.1,56.9,30.13,WSW,237,6.0,16.0,86,0.00,,,0.00,WUHU216DAVISVP2,2013-10-15 17:00:00,
2013-10-15 13:05:00,61.6,57.4,30.13,SW,216,6.0,14.0,86,0.00,,,0.00,WUHU216DAVISVP2,2013-10-15 17:05:00,
2013-10-15 13:10:00,62.0,57.4,30.12,South,188,6.0,16.0,85,0.00,,,0.00,WUHU216DAVISVP2,2013-10-15 17:10:00,
2013-10-15 13:15:00,62.0,57.4,30.12,ENE,77,2.0,16.0,85,0.00,,,0.00,WUHU216DAVISVP2,2013-10-15 17:15:00,
2013-10-15 13:20:00,62.2,57.6,30.11,SSE,148,6.0,14.0,85,0.00,,,0.00,WUHU216DAVISVP2,2013-10-15 17:20:00,
2013-10-15 13:25:00,62.5,57.6,30.11,SSE,167,14.0,20.0,84,0.00,,,0.00,WUHU216DAVISVP2,2013-10-15 17:25:00,
2013-10-15 13:30:00,62.2,57.3,30.11,South,175,2.0,20.0,84,0.00,,,0.00,WUHU216DAVISVP2,2013-10-15 17:30:00,
2013-10-15 13:35:00,62.1,57.5,30.11,South,170,8.0,18.0,85,0.00,,,0.00,WUHU216DAVISVP2,2013-10-15 17:35:00,
2013-10-15 13:40:00,62.0,57.4,30.11,SSW,198,8.0,20.0,85,0.00,,,0.00,WUHU216DAVISVP2,2013-10-15 17:40:00,
2013-10-15 13:45:00,61.9,57.4,30.11,South,180,14.0,20.0,85,0.00,,,0.00,WUHU216DAVISVP2,2013-10-15 17:45:00,
2013-10-15 13:50:00,61.8,57.3,30.11,South,190,8.0,16.0,85,0.00,,,0.00,WUHU216DAVISVP2,2013-10-15 17:50:00,
2013-10-15 13:55:00,62.0,57.8,30.10,South,186,4.0,16.0,86,0.00,,,0.00,WUHU216DAVISVP2,2013-10-15 17:55:00,
2013-10-15 14:00:00,62.3,57.7,30.10,WNW,299,4.0,20.0,85,0.00,,,0.00,WUHU216DAVISVP2,2013-10-15 18:00:00,
2013-10-15 14:05:00,62.4,57.8,30.10,WSW,251,8.0,20.0,85,0.00,,,0.00,WUHU216DAVISVP2,2013-10-15 18:05:00,
2013-10-15 14:10:00,62.5,57.6,30.10,SE,138,4.0,12.0,84,0.00,,,0.00,WUHU216DAVISVP2,2013-10-15 18:10:00,
2013-10-15 14:15:00,62.5,57.6,30.10,WSW,240,0.0,14.0,84,0.00,,,0.00,WUHU216DAVISVP2,2013-10-15 18:15:00,
2013-10-15 14:20:00,62.5,57.6,30.10,SSW,211,8.0,14.0,84,0.00,,,0.00,WUHU216DAVISVP2,2013-10-15 18:20:00,
2013-10-15 14:25:00,62.4,57.5,30.09,SE,138,2.0,14.0,84,0.00,,,0.00,WUHU216DAVISVP2,2013-10-15 18:25:00,
2013-10-15 14:30:00,62.4,57.5,30.09,SSW,196,6.0,14.0,84,0.00,,,0.00,WUHU216DAVISVP2,2013-10-15 18:30:00,
2013-10-15 14:35:00,62.3,57.7,30.09,SSW,208,6.0,12.0,85,0.00,,,0.00,WUHU216DAVISVP2,2013-10-15 18:35:00,
2013-10-15 14:40:00,62.4,57.8,30.09,SSE,153,2.0,14.0,85,0.00,,,0.00,WUHU216DAVISVP2,2013-10-15 18:40:00,
2013-10-15 14:45:00,62.5,57.9,30.09,South,173,6.0,14.0,85,0.00,,,0.00,WUHU216DAVISVP2,2013-10-15 18:45:00,
2013-10-15 14:50:00,62.5,57.9,30.09,WSW,237,8.0,16.0,85,0.00,,,0.00,WUHU216DAVISVP2,2013-10-15 18:50:00,
2013-10-15 14:55:00,62.5,57.9,30.09,SE,134,4.0,16.0,85,0.00,,,0.00,WUHU216DAVISVP2,2013-10-15 18:55:00,
2013-10-15 15:00:00,62.4,57.8,30.09,SSE,151,0.0,16.0,85,0.00,,,0.00,WUHU216DAVISVP2,2013-10-15 19:00:00,
2013-10-15 15:05:00,62.4,57.8,30.09,South,177,4.0,12.0,85,0.00,,,0.00,WUHU216DAVISVP2,2013-10-15 19:05:00,
2013-10-15 15:10:00,62.4,58.2,30.09,SSE,150,2.0,10.0,86,0.00,,,0.00,WUHU216DAVISVP2,2013-10-15 19:10:00,
2013-10-15 15:15:00,62.3,58.1,30.08,SSW,211,10.0,14.0,86,0.00,,,0.00,WUHU216DAVISVP2,2013-10-15 19:15:00,
2013-10-15 15:20:00,62.2,57.6,30.08,SW,225,0.0,20.0,85,0.00,,,0.00,WUHU216DAVISVP2,2013-10-15 19:20:00,
2013-10-15 15:25:00,62.2,58.0,30.08,SE,130,6.0,20.0,86,0.00,,,0.00,WUHU216DAVISVP2,2013-10-15 19:25:00,
2013-10-15 15:30:00,62.2,58.0,30.08,South,170,4.0,16.0,86,0.00,,,0.00,WUHU216DAVISVP2,2013-10-15 19:30:00,
2013-10-15 15:35:00,62.3,58.1,30.08,WSW,238,8.0,16.0,86,0.00,,,0.00,WUHU216DAVISVP2,2013-10-15 19:35:00,
2013-10-15 15:40:00,62.4,58.2,30.08,WNW,300,0.0,12.0,86,0.00,,,0.00,WUHU216DAVISVP2,2013-10-15 19:40:00,
2013-10-15 15:45:00,62.3,58.1,30.08,WSW,239,4.0,16.0,86,0.00,,,0.00,WUHU216DAVISVP2,2013-10-15 19:45:00,
2013-10-15 15:50:00,62.3,58.1,30.08,SSW,197,0.0,16.0,86,0.00,,,0.00,WUHU216DAVISVP2,2013-10-15 19:50:00,
2013-10-15 15:55:00,62.3,58.1,30.08,SSE,150,0.0,14.0,86,0.00,,,0.00,WUHU216DAVISVP2,2013-10-15 19:55:00,
2013-10-15 16:00:00,62.3,58.1,30.08,South,175,0.0,12.0,86,0.00,,,0.00,WUHU216DAVISVP2,2013-10-15 20:00:00,
2013-10-15 16:05:00,62.4,58.2,30.07,SW,219,2.0,12.0,86,0.00,,,0.00,WUHU216DAVISVP2,2013-10-15 20:05:00,
2013-10-15 16:10:00,62.3,58.1,30.07,South,178,6.0,12.0,86,0.00,,,0.00,WUHU216DAVISVP2,2013-10-15 20:10:00,
2013-10-15 16:15:00,62.3,57.7,30.06,ESE,111,2.0,16.0,85,0.00,,,0.00,WUHU216DAVISVP2,2013-10-15 20:15:00,
2013-10-15 16:20:00,62.4,58.2,30.06,WNW,292,2.0,16.0,86,0.00,,,0.00,WUHU216DAVISVP2,2013-10-15 20:20:00,
2013-10-15 16:25:00,62.5,58.3,30.06,South,191,8.0,12.0,86,0.00,,,0.00,WUHU216DAVISVP2,2013-10-15 20:25:00,
2013-10-15 16:30:00,62.6,58.4,30.06,South,170,4.0,12.0,86,0.00,,,0.00,WUHU216DAVISVP2,2013-10-15 20:30:00,
2013-10-15 16:35:00,62.6,58.0,30.06,SSW,206,6.0,20.0,85,0.00,,,0.00,WUHU216DAVISVP2,2013-10-15 20:35:00,
2013-10-15 16:40:00,62.6,58.4,30.06,SSW,194,2.0,20.0,86,0.00,,,0.00,WUHU216DAVISVP2,2013-10-15 20:40:00,
2013-10-15 16:45:00,62.7,58.5,30.06,South,169,4.0,12.0,86,0.00,,,0.00,WUHU216DAVISVP2,2013-10-15 20:45:00,
2013-10-15 16:50:00,62.8,58.2,30.06,East,98,0.0,8.0,85,0.00,,,0.00,WUHU216DAVISVP2,2013-10-15 20:50:00,
2013-10-15 16:55:00,62.9,58.7,30.06,SSE,161,4.0,8.0,86,0.00,,,0.00,WUHU216DAVISVP2,2013-10-15 20:55:00,
2013-10-15 17:00:00,62.9,58.7,30.06,South,183,8.0,12.0,86,0.00,,,0.00,WUHU216DAVISVP2,2013-10-15 21:00:00,
2013-10-15 17:05:00,62.8,58.2,30.06,South,185,4.0,16.0,85,0.00,,,0.00,WUHU216DAVISVP2,2013-10-15 21:05:00,
2013-10-15 17:10:00,62.7,58.5,30.06,SE,144,4.0,16.0,86,0.00,,,0.00,WUHU216DAVISVP2,2013-10-15 21:10:00,
2013-10-15 17:15:00,62.7,58.5,30.05,South,169,4.0,18.0,86,0.00,,,0.00,WUHU216DAVISVP2,2013-10-15 21:15:00,
2013-10-15 17:20:00,62.7,58.5,30.05,SSE,161,2.0,18.0,86,0.00,,,0.00,WUHU216DAVISVP2,2013-10-15 21:20:00,
2013-10-15 17:25:00,62.6,58.4,30.05,SSW,193,10.0,18.0,86,0.00,,,0.00,WUHU216DAVISVP2,2013-10-15 21:25:00,
2013-10-15 17:30:00,62.6,58.4,30.05,WSW,237,0.0,18.0,86,0.00,,,0.00,WUHU216DAVISVP2,2013-10-15 21:30:00,
2013-10-15 17:35:00,62.6,58.4,30.05,South,175,8.0,14.0,86,0.00,,,0.00,WUHU216DAVISVP2,2013-10-15 21:35:00,
2013-10-15 17:40:00,62.5,58.6,30.04,SSW,209,6.0,16.0,87,0.00,,,0.00,WUHU216DAVISVP2,2013-10-15 21:40:00,
2013-10-15 17:45:00,62.5,58.6,30.04,South,182,8.0,16.0,87,0.00,,,0.00,WUHU216DAVISVP2,2013-10-15 21:45:00,
2013-10-15 17:50:00,62.4,58.5,30.04,South,182,8.0,10.0,87,0.00,,,0.00,WUHU216DAVISVP2,2013-10-15 21:50:00,
2013-10-15 17:55:00,62.4,58.5,30.03,South,180,0.0,10.0,87,0.00,,,0.00,WUHU216DAVISVP2,2013-10-15 21:55:00,
2013-10-15 18:00:00,62.3,58.4,30.03,South,178,0.0,8.0,87,0.00,,,0.00,WUHU216DAVISVP2,2013-10-15 22:00:00,
2013-10-15 18:05:00,62.2,58.3,30.03,South,187,2.0,12.0,87,0.00,,,0.00,WUHU216DAVISVP2,2013-10-15 22:05:00,
2013-10-15 18:10:00,62.2,58.6,30.03,SSW,200,4.0,12.0,88,0.00,,,0.00,WUHU216DAVISVP2,2013-10-15 22:10:00,
2013-10-15 18:15:00,62.1,58.5,30.02,SSW,207,6.0,14.0,88,0.00,,,0.00,WUHU216DAVISVP2,2013-10-15 22:15:00,
2013-10-15 18:20:00,62.0,58.4,30.02,SSW,195,2.0,14.0,88,0.00,,,0.00,WUHU216DAVISVP2,2013-10-15 22:20:00,
2013-10-15 18:25:00,61.9,58.3,30.02,SW,221,2.0,10.0,88,0.00,,,0.00,WUHU216DAVISVP2,2013-10-15 22:25:00,
2013-10-15 18:30:00,61.8,58.5,30.02,WSW,255,0.0,14.0,89,0.00,,,0.00,WUHU216DAVISVP2,2013-10-15 22:30:00,
2013-10-15 18:35:00,61.7,58.4,30.02,SE,146,0.0,14.0,89,0.00,,,0.00,WUHU216DAVISVP2,2013-10-15 22:35:00,
2013-10-15 18:40:00,61.7,58.4,30.02,South,191,4.0,16.0,89,0.00,,,0.00,WUHU216DAVISVP2,2013-10-15 22:40:00,
2013-10-15 18:45:00,61.7,58.4,30.02,SSE,157,2.0,16.0,89,0.00,,,0.00,WUHU216DAVISVP2,2013-10-15 22:45:00,
2013-10-15 18:50:00,61.6,58.3,30.02,South,187,0.0,16.0,89,0.00,,,0.00,WUHU216DAVISVP2,2013-10-15 22:50:00,
2013-10-15 18:55:00,61.6,58.3,30.02,South,182,2.0,16.0,89,0.00,,,0.00,WUHU216DAVISVP2,2013-10-15 22:55:00,
2013-10-15 19:00:00,61.5,58.2,30.01,ESE,116,4.0,10.0,89,0.00,,,0.00,WUHU216DAVISVP2,2013-10-15 23:00:00,
2013-10-15 19:05:00,61.4,58.4,30.01,South,190,6.0,12.0,90,0.00,,,0.00,WUHU216DAVISVP2,2013-10-15 23:05:00,
2013-10-15 19:10:00,61.4,58.4,30.01,SSE,157,0.0,12.0,90,0.00,,,0.00,WUHU216DAVISVP2,2013-10-15 23:10:00,
2013-10-15 19:15:00,61.4,58.4,30.01,SE,140,0.0,16.0,90,0.00,,,0.00,WUHU216DAVISVP2,2013-10-15 23:15:00,
2013-10-15 19:20:00,61.4,58.4,30.01,South,186,4.0,16.0,90,0.00,,,0.00,WUHU216DAVISVP2,2013-10-15 23:20:00,
2013-10-15 19:25:00,61.4,58.4,30.00,South,186,0.0,14.0,90,0.00,,,0.00,WUHU216DAVISVP2,2013-10-15 23:25:00,
2013-10-15 19:30:00,61.4,58.7,30.00,SE,139,6.0,14.0,91,0.00,,,0.00,WUHU216DAVISVP2,2013-10-15 23:30:00,
2013-10-15 19:35:00,61.4,58.7,30.00,WSW,257,10.0,18.0,91,0.00,,,0.00,WUHU216DAVISVP2,2013-10-15 23:35:00,
2013-10-15 19:40:00,61.5,58.8,30.00,SW,232,6.0,18.0,91,0.00,,,0.00,WUHU216DAVISVP2,2013-10-15 23:40:00,
2013-10-15 19:45:00,61.5,58.5,30.00,SE,127,10.0,16.0,90,0.00,,,0.00,WUHU216DAVISVP2,2013-10-15 23:45:00,
2013-10-15 19:50:00,61.6,58.9,30.00,SSW,200,8.0,28.0,91,0.00,,,0.00,WUHU216DAVISVP2,2013-10-15 23:50:00,
2013-10-15 19:55:00,61.6,58.9,30.00,South,189,16.0,28.0,91,0.00,,,0.00,WUHU216DAVISVP2,2013-10-15 23:55:00,
2013-10-15 20:00:00,61.6,58.6,29.99,South,170,0.0,18.0,90,0.00,,,0.00,WUHU216DAVISVP2,2013-10-16 00:00:00,
2013-10-15 20:05:00,61.6,58.9,29.99,ESE,117,0.0,20.0,91,0.00,,,0.00,WUHU216DAVISVP2,2013-10-16 00:05:00,
2013-10-15 20:10:00,61.6,58.9,29.99,ESE,121,4.0,20.0,91,0.00,,,0.00,WUHU216DAVISVP2,2013-10-16 00:10:00,
2013-10-15 20:15:00,61.6,58.9,29.99,SSE,161,4.0,20.0,91,0.00,,,0.00,WUHU216DAVISVP2,2013-10-16 00:15:00,
2013-10-15 20:20:00,61.7,59.0,29.99,SW,221,10.0,20.0,91,0.00,,,0.00,WUHU216DAVISVP2,2013-10-16 00:20:00,
2013-10-15 20:25:00,61.7,59.0,29.99,South,175,6.0,26.0,91,0.00,,,0.00,WUHU216DAVISVP2,2013-10-16 00:25:00,
2013-10-15 20:30:00,61.8,59.1,29.98,SSW,198,4.0,26.0,91,0.00,,,0.00,WUHU216DAVISVP2,2013-10-16 00:30:00,
2013-10-15 20:35:00,61.8,59.1,29.98,SSW,198,8.0,24.0,91,0.00,,,0.00,WUHU216DAVISVP2,2013-10-16 00:35:00,
2013-10-15 20:40:00,62.0,59.3,29.98,South,175,4.0,30.0,91,0.00,,,0.00,WUHU216DAVISVP2,2013-10-16 00:40:00,
2013-10-15 20:45:00,62.0,59.3,29.98,SSE,153,16.0,30.0,91,0.00,,,0.00,WUHU216DAVISVP2,2013-10-16 00:45:00,
2013-10-15 20:50:00,62.1,59.4,29.99,SSW,194,2.0,22.0,91,0.00,,,0.00,WUHU216DAVISVP2,2013-10-16 00:50:00,
2013-10-15 20:55:00,62.2,59.5,29.98,South,180,4.0,16.0,91,0.00,,,0.00,WUHU216DAVISVP2,2013-10-16 00:55:00,
2013-10-15 21:00:00,62.3,59.6,29.98,SSE,150,12.0,18.0,91,0.00,,,0.00,WUHU216DAVISVP2,2013-10-16 01:00:00,
2013-10-15 21:05:00,62.3,59.6,29.98,South,185,2.0,18.0,91,0.00,,,0.00,WUHU216DAVISVP2,2013-10-16 01:05:00,
2013-10-15 21:10:00,62.4,59.7,29.99,SSE,154,6.0,14.0,91,0.00,,,0.00,WUHU216DAVISVP2,2013-10-16 01:10:00,
2013-10-15 21:15:00,62.5,59.8,29.99,SSE,162,8.0,14.0,91,0.00,,,0.00,WUHU216DAVISVP2,2013-10-16 01:15:00,
2013-10-15 21:20:00,62.5,59.5,29.99,SSW,194,14.0,16.0,90,0.00,,,0.00,WUHU216DAVISVP2,2013-10-16 01:20:00,
2013-10-15 21:25:00,62.6,59.6,29.99,SSW,205,2.0,16.0,90,0.00,,,0.00,WUHU216DAVISVP2,2013-10-16 01:25:00,
2013-10-15 21:30:00,62.7,59.7,29.99,SSW,200,10.0,20.0,90,0.00,,,0.00,WUHU216DAVISVP2,2013-10-16 01:30:00,
2013-10-15 21:35:00,62.7,59.7,29.98,SSE,167,6.0,24.0,90,0.00,,,0.00,WUHU216DAVISVP2,2013-10-16 01:35:00,
2013-10-15 21:40:00,62.9,59.9,29.98,ESE,121,0.0,24.0,90,0.00,,,0.00,WUHU216DAVISVP2,2013-10-16 01:40:00,
2013-10-15 21:45:00,62.9,59.9,29.98,SSE,157,4.0,22.0,90,0.00,,,0.00,WUHU216DAVISVP2,2013-10-16 01:45:00,
2013-10-15 21:50:00,63.0,60.0,29.98,WSW,242,4.0,22.0,90,0.00,,,0.00,WUHU216DAVISVP2,2013-10-16 01:50:00,
2013-10-15 21:55:00,63.1,59.8,29.99,South,182,2.0,18.0,89,0.00,,,0.00,WUHU216DAVISVP2,2013-10-16 01:55:00,
2013-10-15 22:00:00,63.1,59.8,29.98,SSW,212,4.0,18.0,89,0.00,,,0.00,WUHU216DAVISVP2,2013-10-16 02:00:00,
2013-10-15 22:05:00,63.1,59.8,29.98,SW,220,2.0,18.0,89,0.00,,,0.00,WUHU216DAVISVP2,2013-10-16 02:05:00,
2013-10-15 22:10:00,63.1,59.8,29.98,SSW,204,4.0,14.0,89,0.00,,,0.00,WUHU216DAVISVP2,2013-10-16 02:10:00,
2013-10-15 22:15:00,63.0,59.7,29.98,SSW,198,4.0,14.0,89,0.00,,,0.00,WUHU216DAVISVP2,2013-10-16 02:15:00,
2013-10-15 22:20:00,63.0,59.7,29.97,South,180,2.0,10.0,89,0.00,,,0.00,WUHU216DAVISVP2,2013-10-16 02:20:00,
2013-10-15 22:25:00,63.1,59.8,29.98,South,180,8.0,22.0,89,0.00,,,0.00,WUHU216DAVISVP2,2013-10-16 02:25:00,
2013-10-15 22:30:00,63.1,59.8,29.98,SSW,192,4.0,22.0,89,0.00,,,0.00,WUHU216DAVISVP2,2013-10-16 02:30:00,
2013-10-15 22:35:00,63.1,59.8,29.98,NW,325,4.0,12.0,89,0.00,,,0.00,WUHU216DAVISVP2,2013-10-16 02:35:00,
2013-10-15 22:40:00,63.1,59.5,29.97,WSW,244,0.0,14.0,88,0.00,,,0.00,WUHU216DAVISVP2,2013-10-16 02:40:00,
2013-10-15 22:45:00,63.1,59.5,29.98,West,277,4.0,16.0,88,0.00,,,0.00,WUHU216DAVISVP2,2013-10-16 02:45:00,
2013-10-15 22:50:00,63.2,59.6,29.97,SSW,194,4.0,16.0,88,0.00,,,0.00,WUHU216DAVISVP2,2013-10-16 02:50:00,
2013-10-15 22:55:00,63.3,59.7,29.98,SSW,194,4.0,18.0,88,0.00,,,0.00,WUHU216DAVISVP2,2013-10-16 02:55:00,
2013-10-15 23:00:00,63.3,59.7,29.97,ENE,63,6.0,18.0,88,0.00,,,0.00,WUHU216DAVISVP2,2013-10-16 03:00:00,
2013-10-15 23:05:00,63.3,59.4,29.98,SSW,192,14.0,18.0,87,0.00,,,0.00,WUHU216DAVISVP2,2013-10-16 03:05:00,
2013-10-15 23:10:00,63.3,59.4,29.97,SSW,209,6.0,22.0,87,0.00,,,0.00,WUHU216DAVISVP2,2013-10-16 03:10:00,
2013-10-15 23:15:00,63.3,59.4,29.97,SW,230,8.0,22.0,87,0.00,,,0.00,WUHU216DAVISVP2,2013-10-16 03:15:00,
2013-10-15 23:20:00,63.2,59.6,29.97,SSW,192,2.0,20.0,88,0.00,,,0.00,WUHU216DAVISVP2,2013-10-16 03:20:00,
2013-10-15 23:25:00,63.0,59.7,29.98,South,177,4.0,20.0,89,0.00,,,0.00,WUHU216DAVISVP2,2013-10-16 03:25:00,
2013-10-15 23:30:00,62.8,59.5,29.97,SSW,202,0.0,20.0,89,0.00,,,0.00,WUHU216DAVISVP2,2013-10-16 03:30:00,
2013-10-15 23:35:00,62.6,59.3,29.97,West,271,12.0,14.0,89,0.00,,,0.00,WUHU216DAVISVP2,2013-10-16 03:35:00,
2013-10-15 23:40:00,62.5,59.5,29.97,SW,220,0.0,18.0,90,0.01,,,0.01,WUHU216DAVISVP2,2013-10-16 03:40:00,
2013-10-15 23:45:00,62.4,59.4,29.97,SSW,196,2.0,18.0,90,0.01,,,0.01,WUHU216DAVISVP2,2013-10-16 03:45:00,
2013-10-15 23:50:00,62.2,59.2,29.97,SSW,207,4.0,16.0,90,0.01,,,0.01,WUHU216DAVISVP2,2013-10-16 03:50:00,
2013-10-15 23:55:00,62.0,59.3,29.97,SW,222,0.0,16.0,91,0.01,,,0.01,WUHU216DAVISVP2,2013-10-16 03:55:00,